sensor_id;sensor_type;location;lat;lon;timestamp;P1;durP1;ratioP1;P2;durP2;ratioP2
30472;SDS011;17263;48.160;11.452;2023-07-16T00:00:31;8.73;;;5.50;;
30472;SDS011;17263;48.160;11.452;2023-07-16T00:02:57;7.07;;;5.37;;
30472;SDS011;17263;48.160;11.452;2023-07-16T00:05:23;6.73;;;5.03;;
30472;SDS011;17263;48.160;11.452;2023-07-16T00:07:49;9.40;;;5.23;;
30472;SDS011;17263;48.160;11.452;2023-07-16T00:10:15;12.77;;;5.60;;
30472;SDS011;17263;48.160;11.452;2023-07-16T00:12:41;8.27;;;5.30;;
30472;SDS011;17263;48.160;11.452;2023-07-16T00:15:07;7.23;;;5.10;;
30472;SDS011;17263;48.160;11.452;2023-07-16T00:17:34;6.03;;;4.83;;
30472;SDS011;17263;48.160;11.452;2023-07-16T00:20:00;6.40;;;5.07;;
30472;SDS011;17263;48.160;11.452;2023-07-16T00:22:26;8.43;;;5.53;;
30472;SDS011;17263;48.160;11.452;2023-07-16T00:24:52;6.27;;;5.20;;
30472;SDS011;17263;48.160;11.452;2023-07-16T00:27:18;7.20;;;5.67;;
30472;SDS011;17263;48.160;11.452;2023-07-16T00:29:44;7.97;;;5.63;;
30472;SDS011;17263;48.160;11.452;2023-07-16T00:32:10;6.97;;;5.33;;
30472;SDS011;17263;48.160;11.452;2023-07-16T00:34:37;7.23;;;5.83;;
30472;SDS011;17263;48.160;11.452;2023-07-16T00:37:03;6.23;;;5.37;;
30472;SDS011;17263;48.160;11.452;2023-07-16T00:39:29;7.27;;;5.33;;
30472;SDS011;17263;48.160;11.452;2023-07-16T00:41:55;6.13;;;5.53;;
30472;SDS011;17263;48.160;11.452;2023-07-16T00:44:21;5.57;;;5.00;;
30472;SDS011;17263;48.160;11.452;2023-07-16T00:46:48;7.57;;;5.20;;
30472;SDS011;17263;48.160;11.452;2023-07-16T00:49:14;5.23;;;4.73;;
30472;SDS011;17263;48.160;11.452;2023-07-16T00:51:41;7.83;;;5.90;;
30472;SDS011;17263;48.160;11.452;2023-07-16T00:54:08;7.43;;;5.30;;
30472;SDS011;17263;48.160;11.452;2023-07-16T00:56:34;6.93;;;5.60;;
30472;SDS011;17263;48.160;11.452;2023-07-16T00:59:02;5.90;;;5.20;;
30472;SDS011;17263;48.160;11.452;2023-07-16T01:01:28;6.83;;;5.67;;
30472;SDS011;17263;48.160;11.452;2023-07-16T01:03:54;7.67;;;6.10;;
30472;SDS011;17263;48.160;11.452;2023-07-16T01:09:10;9.07;;;5.97;;
30472;SDS011;17263;48.160;11.452;2023-07-16T01:11:45;9.60;;;5.93;;
30472;SDS011;17263;48.160;11.452;2023-07-16T01:14:12;7.67;;;5.50;;
30472;SDS011;17263;48.160;11.452;2023-07-16T01:16:40;7.47;;;6.73;;
30472;SDS011;17263;48.160;11.452;2023-07-16T01:19:06;6.43;;;5.33;;
30472;SDS011;17263;48.160;11.452;2023-07-16T01:21:34;6.27;;;5.53;;
30472;SDS011;17263;48.160;11.452;2023-07-16T01:32:09;9.77;;;5.77;;
30472;SDS011;17263;48.160;11.452;2023-07-16T01:34:37;13.13;;;6.53;;
30472;SDS011;17263;48.160;11.452;2023-07-16T01:37:04;6.40;;;5.80;;
30472;SDS011;17263;48.160;11.452;2023-07-16T01:39:31;7.87;;;5.67;;
30472;SDS011;17263;48.160;11.452;2023-07-16T01:42:01;8.97;;;6.13;;
30472;SDS011;17263;48.160;11.452;2023-07-16T01:44:28;7.50;;;6.00;;
30472;SDS011;17263;48.160;11.452;2023-07-16T01:47:40;7.77;;;5.97;;
30472;SDS011;17263;48.160;11.452;2023-07-16T01:49:43;6.63;;;5.77;;
30472;SDS011;17263;48.160;11.452;2023-07-16T01:52:10;7.53;;;6.00;;
30472;SDS011;17263;48.160;11.452;2023-07-16T01:54:36;6.43;;;5.83;;
30472;SDS011;17263;48.160;11.452;2023-07-16T01:57:02;8.20;;;6.10;;
30472;SDS011;17263;48.160;11.452;2023-07-16T01:59:28;8.03;;;6.07;;
30472;SDS011;17263;48.160;11.452;2023-07-16T02:01:54;10.00;;;5.70;;
30472;SDS011;17263;48.160;11.452;2023-07-16T02:04:20;7.60;;;5.93;;
30472;SDS011;17263;48.160;11.452;2023-07-16T02:06:47;11.70;;;6.17;;
30472;SDS011;17263;48.160;11.452;2023-07-16T02:09:16;6.63;;;5.93;;
30472;SDS011;17263;48.160;11.452;2023-07-16T02:11:42;7.27;;;6.07;;
30472;SDS011;17263;48.160;11.452;2023-07-16T02:14:08;7.17;;;5.97;;
30472;SDS011;17263;48.160;11.452;2023-07-16T02:16:34;7.07;;;6.20;;
30472;SDS011;17263;48.160;11.452;2023-07-16T02:19:00;7.13;;;6.13;;
30472;SDS011;17263;48.160;11.452;2023-07-16T02:21:26;7.80;;;5.90;;
30472;SDS011;17263;48.160;11.452;2023-07-16T02:23:52;8.87;;;5.40;;
30472;SDS011;17263;48.160;11.452;2023-07-16T02:26:18;6.47;;;5.30;;
30472;SDS011;17263;48.160;11.452;2023-07-16T02:28:44;10.90;;;6.27;;
30472;SDS011;17263;48.160;11.452;2023-07-16T02:31:10;5.63;;;5.13;;
30472;SDS011;17263;48.160;11.452;2023-07-16T02:33:36;8.67;;;5.87;;
30472;SDS011;17263;48.160;11.452;2023-07-16T02:36:03;8.53;;;5.87;;
30472;SDS011;17263;48.160;11.452;2023-07-16T02:38:29;7.30;;;4.97;;
30472;SDS011;17263;48.160;11.452;2023-07-16T02:40:55;7.00;;;5.10;;
30472;SDS011;17263;48.160;11.452;2023-07-16T02:43:21;6.17;;;4.93;;
30472;SDS011;17263;48.160;11.452;2023-07-16T02:45:47;8.47;;;5.53;;
30472;SDS011;17263;48.160;11.452;2023-07-16T02:48:13;5.73;;;5.10;;
30472;SDS011;17263;48.160;11.452;2023-07-16T02:50:39;5.97;;;5.13;;
30472;SDS011;17263;48.160;11.452;2023-07-16T02:53:06;8.20;;;4.60;;
30472;SDS011;17263;48.160;11.452;2023-07-16T02:55:33;5.50;;;5.00;;
30472;SDS011;17263;48.160;11.452;2023-07-16T02:58:00;7.13;;;5.07;;
30472;SDS011;17263;48.160;11.452;2023-07-16T03:00:33;5.57;;;4.83;;
30472;SDS011;17263;48.160;11.452;2023-07-16T03:02:59;7.47;;;4.60;;
30472;SDS011;17263;48.160;11.452;2023-07-16T03:05:28;5.40;;;4.03;;
30472;SDS011;17263;48.160;11.452;2023-07-16T03:07:54;4.70;;;4.13;;
30472;SDS011;17263;48.160;11.452;2023-07-16T03:10:21;6.17;;;4.00;;
30472;SDS011;17263;48.160;11.452;2023-07-16T03:12:47;4.70;;;4.20;;
30472;SDS011;17263;48.160;11.452;2023-07-16T03:15:13;8.80;;;7.20;;
30472;SDS011;17263;48.160;11.452;2023-07-16T03:17:39;21.93;;;19.87;;
30472;SDS011;17263;48.160;11.452;2023-07-16T03:20:06;7.37;;;6.40;;
30472;SDS011;17263;48.160;11.452;2023-07-16T03:22:32;3.93;;;3.53;;
30472;SDS011;17263;48.160;11.452;2023-07-16T03:24:58;6.73;;;3.90;;
30472;SDS011;17263;48.160;11.452;2023-07-16T03:27:24;5.00;;;3.83;;
30472;SDS011;17263;48.160;11.452;2023-07-16T03:29:50;5.93;;;3.70;;
30472;SDS011;17263;48.160;11.452;2023-07-16T03:32:16;4.77;;;3.50;;
30472;SDS011;17263;48.160;11.452;2023-07-16T03:34:42;6.37;;;3.60;;
30472;SDS011;17263;48.160;11.452;2023-07-16T03:37:08;4.57;;;3.63;;
30472;SDS011;17263;48.160;11.452;2023-07-16T03:39:35;3.80;;;3.40;;
30472;SDS011;17263;48.160;11.452;2023-07-16T03:42:01;3.60;;;3.30;;
30472;SDS011;17263;48.160;11.452;2023-07-16T03:44:27;5.03;;;3.17;;
30472;SDS011;17263;48.160;11.452;2023-07-16T03:46:54;3.73;;;3.30;;
30472;SDS011;17263;48.160;11.452;2023-07-16T03:49:20;3.67;;;3.23;;
30472;SDS011;17263;48.160;11.452;2023-07-16T03:51:46;3.60;;;3.23;;
30472;SDS011;17263;48.160;11.452;2023-07-16T03:54:12;5.90;;;3.33;;
30472;SDS011;17263;48.160;11.452;2023-07-16T03:56:38;3.97;;;2.97;;
30472;SDS011;17263;48.160;11.452;2023-07-16T03:59:04;4.40;;;3.70;;
30472;SDS011;17263;48.160;11.452;2023-07-16T04:01:30;13.00;;;11.70;;
30472;SDS011;17263;48.160;11.452;2023-07-16T04:03:56;7.20;;;3.83;;
30472;SDS011;17263;48.160;11.452;2023-07-16T04:06:22;4.57;;;3.23;;
30472;SDS011;17263;48.160;11.452;2023-07-16T04:08:48;3.43;;;3.13;;
30472;SDS011;17263;48.160;11.452;2023-07-16T04:11:14;3.90;;;2.87;;
30472;SDS011;17263;48.160;11.452;2023-07-16T04:13:41;3.97;;;2.73;;
30472;SDS011;17263;48.160;11.452;2023-07-16T04:16:07;4.70;;;2.80;;
30472;SDS011;17263;48.160;11.452;2023-07-16T04:18:33;5.73;;;3.27;;
30472;SDS011;17263;48.160;11.452;2023-07-16T04:21:01;5.97;;;3.30;;
30472;SDS011;17263;48.160;11.452;2023-07-16T04:23:33;5.03;;;3.03;;
30472;SDS011;17263;48.160;11.452;2023-07-16T04:26:00;4.10;;;2.97;;
30472;SDS011;17263;48.160;11.452;2023-07-16T04:28:27;4.33;;;2.60;;
30472;SDS011;17263;48.160;11.452;2023-07-16T04:30:53;3.03;;;2.73;;
30472;SDS011;17263;48.160;11.452;2023-07-16T04:33:19;4.20;;;3.00;;
30472;SDS011;17263;48.160;11.452;2023-07-16T04:35:45;3.87;;;2.93;;
30472;SDS011;17263;48.160;11.452;2023-07-16T04:38:11;5.33;;;3.10;;
30472;SDS011;17263;48.160;11.452;2023-07-16T04:40:41;3.13;;;2.83;;
30472;SDS011;17263;48.160;11.452;2023-07-16T04:43:13;4.63;;;2.80;;
30472;SDS011;17263;48.160;11.452;2023-07-16T04:45:43;3.43;;;2.53;;
30472;SDS011;17263;48.160;11.452;2023-07-16T04:48:15;3.57;;;2.90;;
30472;SDS011;17263;48.160;11.452;2023-07-16T04:50:41;3.83;;;2.63;;
30472;SDS011;17263;48.160;11.452;2023-07-16T04:53:07;2.70;;;2.50;;
30472;SDS011;17263;48.160;11.452;2023-07-16T04:55:54;3.17;;;2.67;;
30472;SDS011;17263;48.160;11.452;2023-07-16T04:58:22;2.87;;;2.50;;
30472;SDS011;17263;48.160;11.452;2023-07-16T05:00:48;2.77;;;2.57;;
30472;SDS011;17263;48.160;11.452;2023-07-16T05:03:14;3.53;;;2.30;;
30472;SDS011;17263;48.160;11.452;2023-07-16T05:05:40;2.50;;;2.30;;
30472;SDS011;17263;48.160;11.452;2023-07-16T05:08:06;2.90;;;2.50;;
30472;SDS011;17263;48.160;11.452;2023-07-16T05:10:33;3.03;;;2.77;;
30472;SDS011;17263;48.160;11.452;2023-07-16T05:12:59;5.87;;;2.63;;
30472;SDS011;17263;48.160;11.452;2023-07-16T05:15:25;3.73;;;2.60;;
30472;SDS011;17263;48.160;11.452;2023-07-16T05:17:51;3.13;;;2.83;;
30472;SDS011;17263;48.160;11.452;2023-07-16T05:20:20;4.43;;;3.10;;
30472;SDS011;17263;48.160;11.452;2023-07-16T05:22:46;3.33;;;3.03;;
30472;SDS011;17263;48.160;11.452;2023-07-16T05:25:12;3.17;;;2.70;;
30472;SDS011;17263;48.160;11.452;2023-07-16T05:27:38;3.70;;;3.00;;
30472;SDS011;17263;48.160;11.452;2023-07-16T05:30:04;3.60;;;3.17;;
30472;SDS011;17263;48.160;11.452;2023-07-16T05:32:31;4.97;;;3.17;;
30472;SDS011;17263;48.160;11.452;2023-07-16T05:34:57;3.33;;;3.03;;
30472;SDS011;17263;48.160;11.452;2023-07-16T05:37:28;3.43;;;3.13;;
30472;SDS011;17263;48.160;11.452;2023-07-16T05:39:54;4.93;;;3.20;;
30472;SDS011;17263;48.160;11.452;2023-07-16T05:42:20;4.93;;;3.13;;
30472;SDS011;17263;48.160;11.452;2023-07-16T05:44:49;4.93;;;2.77;;
30472;SDS011;17263;48.160;11.452;2023-07-16T05:47:15;3.33;;;3.03;;
30472;SDS011;17263;48.160;11.452;2023-07-16T05:49:41;3.70;;;2.80;;
30472;SDS011;17263;48.160;11.452;2023-07-16T05:52:09;3.20;;;2.90;;
30472;SDS011;17263;48.160;11.452;2023-07-16T05:54:35;3.30;;;2.97;;
30472;SDS011;17263;48.160;11.452;2023-07-16T05:57:01;3.10;;;2.80;;
30472;SDS011;17263;48.160;11.452;2023-07-16T05:59:27;3.20;;;2.90;;
30472;SDS011;17263;48.160;11.452;2023-07-16T06:01:53;3.07;;;2.77;;
30472;SDS011;17263;48.160;11.452;2023-07-16T06:04:20;3.10;;;2.80;;
30472;SDS011;17263;48.160;11.452;2023-07-16T06:06:46;3.07;;;2.70;;
30472;SDS011;17263;48.160;11.452;2023-07-16T06:09:15;5.00;;;2.83;;
30472;SDS011;17263;48.160;11.452;2023-07-16T06:11:41;6.10;;;3.10;;
30472;SDS011;17263;48.160;11.452;2023-07-16T06:14:08;5.43;;;2.90;;
30472;SDS011;17263;48.160;11.452;2023-07-16T06:16:34;3.27;;;2.97;;
30472;SDS011;17263;48.160;11.452;2023-07-16T06:19:00;3.00;;;2.70;;
30472;SDS011;17263;48.160;11.452;2023-07-16T06:21:26;3.03;;;2.80;;
30472;SDS011;17263;48.160;11.452;2023-07-16T06:23:52;3.17;;;2.75;;
30472;SDS011;17263;48.160;11.452;2023-07-16T06:26:18;4.28;;;2.80;;
30472;SDS011;17263;48.160;11.452;2023-07-16T06:28:45;4.20;;;3.10;;
30472;SDS011;17263;48.160;11.452;2023-07-16T06:31:15;2.80;;;2.57;;
30472;SDS011;17263;48.160;11.452;2023-07-16T06:33:41;3.15;;;2.67;;
30472;SDS011;17263;48.160;11.452;2023-07-16T06:36:08;3.58;;;2.45;;
30472;SDS011;17263;48.160;11.452;2023-07-16T06:38:34;2.92;;;2.70;;
30472;SDS011;17263;48.160;11.452;2023-07-16T06:41:00;2.67;;;2.40;;
30472;SDS011;17263;48.160;11.452;2023-07-16T06:43:26;3.85;;;2.65;;
30472;SDS011;17263;48.160;11.452;2023-07-16T06:45:52;3.63;;;2.80;;
30472;SDS011;17263;48.160;11.452;2023-07-16T06:48:18;2.70;;;2.50;;
30472;SDS011;17263;48.160;11.452;2023-07-16T06:50:45;2.78;;;2.38;;
30472;SDS011;17263;48.160;11.452;2023-07-16T06:53:10;2.53;;;2.33;;
30472;SDS011;17263;48.160;11.452;2023-07-16T06:55:37;2.13;;;1.92;;
30472;SDS011;17263;48.160;11.452;2023-07-16T06:58:03;2.42;;;2.00;;
30472;SDS011;17263;48.160;11.452;2023-07-16T07:00:29;2.00;;;1.80;;
30472;SDS011;17263;48.160;11.452;2023-07-16T07:02:55;2.15;;;1.75;;
30472;SDS011;17263;48.160;11.452;2023-07-16T07:05:21;3.38;;;1.80;;
30472;SDS011;17263;48.160;11.452;2023-07-16T07:07:47;2.83;;;2.13;;
30472;SDS011;17263;48.160;11.452;2023-07-16T07:10:13;2.13;;;1.90;;
30472;SDS011;17263;48.160;11.452;2023-07-16T07:12:39;2.35;;;1.90;;
30472;SDS011;17263;48.160;11.452;2023-07-16T07:15:06;2.70;;;1.95;;
30472;SDS011;17263;48.160;11.452;2023-07-16T07:17:33;1.88;;;1.75;;
30472;SDS011;17263;48.160;11.452;2023-07-16T07:19:59;2.90;;;1.90;;
30472;SDS011;17263;48.160;11.452;2023-07-16T07:22:26;3.28;;;1.60;;
30472;SDS011;17263;48.160;11.452;2023-07-16T07:24:52;3.90;;;2.00;;
30472;SDS011;17263;48.160;11.452;2023-07-16T07:27:18;3.10;;;2.03;;
30472;SDS011;17263;48.160;11.452;2023-07-16T07:29:44;2.60;;;1.95;;
30472;SDS011;17263;48.160;11.452;2023-07-16T07:32:11;2.03;;;1.70;;
30472;SDS011;17263;48.160;11.452;2023-07-16T07:34:40;1.95;;;1.85;;
30472;SDS011;17263;48.160;11.452;2023-07-16T07:37:07;2.42;;;2.22;;
30472;SDS011;17263;48.160;11.452;2023-07-16T07:39:34;2.67;;;1.90;;
30472;SDS011;17263;48.160;11.452;2023-07-16T07:42:00;3.15;;;1.80;;
30472;SDS011;17263;48.160;11.452;2023-07-16T07:44:26;2.15;;;1.95;;
30472;SDS011;17263;48.160;11.452;2023-07-16T07:46:52;3.20;;;2.17;;
30472;SDS011;17263;48.160;11.452;2023-07-16T07:49:18;1.95;;;1.77;;
30472;SDS011;17263;48.160;11.452;2023-07-16T07:51:44;2.45;;;2.13;;
30472;SDS011;17263;48.160;11.452;2023-07-16T07:54:10;3.03;;;2.10;;
30472;SDS011;17263;48.160;11.452;2023-07-16T07:56:36;2.47;;;2.15;;
30472;SDS011;17263;48.160;11.452;2023-07-16T07:59:02;2.85;;;1.92;;
30472;SDS011;17263;48.160;11.452;2023-07-16T08:01:30;4.32;;;1.98;;
30472;SDS011;17263;48.160;11.452;2023-07-16T08:03:56;2.25;;;1.83;;
30472;SDS011;17263;48.160;11.452;2023-07-16T08:06:22;2.85;;;1.90;;
30472;SDS011;17263;48.160;11.452;2023-07-16T08:08:48;2.03;;;1.70;;
30472;SDS011;17263;48.160;11.452;2023-07-16T08:11:14;3.63;;;1.90;;
30472;SDS011;17263;48.160;11.452;2023-07-16T08:13:40;2.00;;;1.70;;
30472;SDS011;17263;48.160;11.452;2023-07-16T08:16:06;5.63;;;1.90;;
30472;SDS011;17263;48.160;11.452;2023-07-16T08:18:32;3.40;;;1.83;;
30472;SDS011;17263;48.160;11.452;2023-07-16T08:20:58;2.03;;;1.70;;
30472;SDS011;17263;48.160;11.452;2023-07-16T08:23:24;1.70;;;1.60;;
30472;SDS011;17263;48.160;11.452;2023-07-16T08:25:50;4.88;;;2.10;;
30472;SDS011;17263;48.160;11.452;2023-07-16T08:28:16;1.73;;;1.60;;
30472;SDS011;17263;48.160;11.452;2023-07-16T08:30:42;1.80;;;1.70;;
30472;SDS011;17263;48.160;11.452;2023-07-16T08:33:12;2.35;;;1.60;;
30472;SDS011;17263;48.160;11.452;2023-07-16T08:35:40;3.65;;;1.60;;
30472;SDS011;17263;48.160;11.452;2023-07-16T08:38:06;1.90;;;1.63;;
30472;SDS011;17263;48.160;11.452;2023-07-16T08:40:36;3.08;;;1.55;;
30472;SDS011;17263;48.160;11.452;2023-07-16T08:43:03;2.45;;;1.80;;
30472;SDS011;17263;48.160;11.452;2023-07-16T08:45:31;1.90;;;1.80;;
30472;SDS011;17263;48.160;11.452;2023-07-16T08:48:05;1.88;;;1.70;;
30472;SDS011;17263;48.160;11.452;2023-07-16T08:50:33;1.77;;;1.67;;
30472;SDS011;17263;48.160;11.452;2023-07-16T08:53:03;1.77;;;1.67;;
30472;SDS011;17263;48.160;11.452;2023-07-16T08:55:30;2.03;;;1.83;;
30472;SDS011;17263;48.160;11.452;2023-07-16T08:57:57;3.47;;;2.00;;
30472;SDS011;17263;48.160;11.452;2023-07-16T09:00:27;1.83;;;1.60;;
30472;SDS011;17263;48.160;11.452;2023-07-16T09:02:54;2.10;;;1.80;;
30472;SDS011;17263;48.160;11.452;2023-07-16T09:05:21;1.50;;;1.40;;
30472;SDS011;17263;48.160;11.452;2023-07-16T09:07:48;1.45;;;1.35;;
30472;SDS011;17263;48.160;11.452;2023-07-16T09:10:14;2.13;;;1.80;;
30472;SDS011;17263;48.160;11.452;2023-07-16T09:12:44;1.60;;;1.50;;
30472;SDS011;17263;48.160;11.452;2023-07-16T09:15:16;2.08;;;1.70;;
30472;SDS011;17263;48.160;11.452;2023-07-16T09:17:48;1.55;;;1.45;;
30472;SDS011;17263;48.160;11.452;2023-07-16T09:20:14;2.53;;;1.58;;
30472;SDS011;17263;48.160;11.452;2023-07-16T09:22:42;1.70;;;1.60;;
30472;SDS011;17263;48.160;11.452;2023-07-16T09:25:09;1.92;;;1.50;;
30472;SDS011;17263;48.160;11.452;2023-07-16T09:27:36;2.17;;;1.63;;
30472;SDS011;17263;48.160;11.452;2023-07-16T09:30:05;2.95;;;1.70;;
30472;SDS011;17263;48.160;11.452;2023-07-16T09:32:33;1.70;;;1.55;;
30472;SDS011;17263;48.160;11.452;2023-07-16T09:35:14;2.17;;;1.10;;
30472;SDS011;17263;48.160;11.452;2023-07-16T09:37:41;1.77;;;1.67;;
30472;SDS011;17263;48.160;11.452;2023-07-16T09:40:08;1.92;;;1.48;;
30472;SDS011;17263;48.160;11.452;2023-07-16T09:42:42;1.73;;;1.60;;
30472;SDS011;17263;48.160;11.452;2023-07-16T09:45:16;1.63;;;1.50;;
30472;SDS011;17263;48.160;11.452;2023-07-16T09:47:43;1.65;;;1.33;;
30472;SDS011;17263;48.160;11.452;2023-07-16T09:50:10;1.88;;;1.73;;
30472;SDS011;17263;48.160;11.452;2023-07-16T09:52:37;1.67;;;1.58;;
30472;SDS011;17263;48.160;11.452;2023-07-16T09:55:05;1.60;;;1.50;;
30472;SDS011;17263;48.160;11.452;2023-07-16T09:57:35;1.30;;;1.20;;
30472;SDS011;17263;48.160;11.452;2023-07-16T10:00:03;1.50;;;1.40;;
30472;SDS011;17263;48.160;11.452;2023-07-16T10:02:33;1.70;;;1.60;;
30472;SDS011;17263;48.160;11.452;2023-07-16T10:05:13;1.42;;;1.33;;
30472;SDS011;17263;48.160;11.452;2023-07-16T10:07:51;1.60;;;1.50;;
30472;SDS011;17263;48.160;11.452;2023-07-16T10:10:19;1.65;;;1.55;;
30472;SDS011;17263;48.160;11.452;2023-07-16T10:12:55;1.80;;;1.70;;
30472;SDS011;17263;48.160;11.452;2023-07-16T10:15:25;1.80;;;1.52;;
30472;SDS011;17263;48.160;11.452;2023-07-16T10:17:53;1.95;;;1.60;;
30472;SDS011;17263;48.160;11.452;2023-07-16T10:20:35;2.42;;;1.48;;
30472;SDS011;17263;48.160;11.452;2023-07-16T10:23:11;1.88;;;1.67;;
30472;SDS011;17263;48.160;11.452;2023-07-16T10:25:39;1.73;;;1.63;;
30472;SDS011;17263;48.160;11.452;2023-07-16T10:28:05;1.98;;;1.77;;
30472;SDS011;17263;48.160;11.452;2023-07-16T10:30:32;1.90;;;1.80;;
30472;SDS011;17263;48.160;11.452;2023-07-16T10:33:02;1.73;;;1.50;;
30472;SDS011;17263;48.160;11.452;2023-07-16T10:35:36;1.65;;;1.50;;
30472;SDS011;17263;48.160;11.452;2023-07-16T10:38:07;1.77;;;1.67;;
30472;SDS011;17263;48.160;11.452;2023-07-16T10:40:33;2.30;;;1.70;;
30472;SDS011;17263;48.160;11.452;2023-07-16T10:43:05;3.10;;;1.85;;
30472;SDS011;17263;48.160;11.452;2023-07-16T10:45:31;2.13;;;1.92;;
30472;SDS011;17263;48.160;11.452;2023-07-16T10:47:58;3.17;;;1.60;;
30472;SDS011;17263;48.160;11.452;2023-07-16T10:50:24;1.80;;;1.70;;
30472;SDS011;17263;48.160;11.452;2023-07-16T10:52:51;1.85;;;1.70;;
30472;SDS011;17263;48.160;11.452;2023-07-16T10:55:19;1.50;;;1.40;;
30472;SDS011;17263;48.160;11.452;2023-07-16T10:57:48;2.95;;;2.00;;
30472;SDS011;17263;48.160;11.452;2023-07-16T11:00:16;1.80;;;1.70;;
30472;SDS011;17263;48.160;11.452;2023-07-16T11:02:43;2.85;;;1.95;;
30472;SDS011;17263;48.160;11.452;2023-07-16T11:05:10;1.80;;;1.63;;
30472;SDS011;17263;48.160;11.452;2023-07-16T11:07:37;2.00;;;1.80;;
30472;SDS011;17263;48.160;11.452;2023-07-16T11:10:03;1.98;;;1.88;;
30472;SDS011;17263;48.160;11.452;2023-07-16T11:12:30;2.22;;;1.80;;
30472;SDS011;17263;48.160;11.452;2023-07-16T11:14:56;1.83;;;1.65;;
30472;SDS011;17263;48.160;11.452;2023-07-16T11:17:23;3.55;;;2.60;;
30472;SDS011;17263;48.160;11.452;2023-07-16T11:19:50;2.30;;;2.10;;
30472;SDS011;17263;48.160;11.452;2023-07-16T11:22:17;1.92;;;1.70;;
30472;SDS011;17263;48.160;11.452;2023-07-16T11:24:45;1.83;;;1.73;;
30472;SDS011;17263;48.160;11.452;2023-07-16T11:27:13;4.93;;;2.05;;
30472;SDS011;17263;48.160;11.452;2023-07-16T11:29:54;1.90;;;1.80;;
30472;SDS011;17263;48.160;11.452;2023-07-16T11:34:58;2.03;;;1.80;;
30472;SDS011;17263;48.160;11.452;2023-07-16T11:37:26;1.98;;;1.77;;
30472;SDS011;17263;48.160;11.452;2023-07-16T11:39:57;2.10;;;1.90;;
30472;SDS011;17263;48.160;11.452;2023-07-16T11:42:27;2.00;;;1.75;;
30472;SDS011;17263;48.160;11.452;2023-07-16T11:44:54;2.17;;;1.98;;
30472;SDS011;17263;48.160;11.452;2023-07-16T11:47:21;2.10;;;1.90;;
30472;SDS011;17263;48.160;11.452;2023-07-16T11:49:48;2.20;;;2.00;;
30472;SDS011;17263;48.160;11.452;2023-07-16T11:52:14;2.08;;;1.88;;
30472;SDS011;17263;48.160;11.452;2023-07-16T11:54:44;2.00;;;1.60;;
30472;SDS011;17263;48.160;11.452;2023-07-16T11:57:10;2.58;;;1.88;;
30472;SDS011;17263;48.160;11.452;2023-07-16T11:59:36;2.10;;;1.88;;
30472;SDS011;17263;48.160;11.452;2023-07-16T12:02:02;2.45;;;2.22;;
30472;SDS011;17263;48.160;11.452;2023-07-16T12:04:28;2.65;;;2.42;;
30472;SDS011;17263;48.160;11.452;2023-07-16T12:06:54;3.42;;;3.13;;
30472;SDS011;17263;48.160;11.452;2023-07-16T12:09:20;2.20;;;2.00;;
30472;SDS011;17263;48.160;11.452;2023-07-16T12:11:46;2.65;;;1.90;;
30472;SDS011;17263;48.160;11.452;2023-07-16T12:14:12;2.72;;;1.95;;
30472;SDS011;17263;48.160;11.452;2023-07-16T12:16:38;2.40;;;1.95;;
30472;SDS011;17263;48.160;11.452;2023-07-16T12:19:08;2.28;;;2.08;;
30472;SDS011;17263;48.160;11.452;2023-07-16T12:21:34;2.10;;;1.90;;
30472;SDS011;17263;48.160;11.452;2023-07-16T12:24:00;1.90;;;1.80;;
30472;SDS011;17263;48.160;11.452;2023-07-16T12:26:27;2.13;;;1.98;;
30472;SDS011;17263;48.160;11.452;2023-07-16T12:28:53;2.33;;;2.13;;
30472;SDS011;17263;48.160;11.452;2023-07-16T12:31:19;2.10;;;2.00;;
30472;SDS011;17263;48.160;11.452;2023-07-16T12:33:46;2.92;;;2.10;;
30472;SDS011;17263;48.160;11.452;2023-07-16T12:36:12;2.00;;;1.90;;
30472;SDS011;17263;48.160;11.452;2023-07-16T12:38:39;3.00;;;2.10;;
30472;SDS011;17263;48.160;11.452;2023-07-16T12:41:06;2.30;;;2.10;;
30472;SDS011;17263;48.160;11.452;2023-07-16T12:43:32;2.40;;;2.20;;
30472;SDS011;17263;48.160;11.452;2023-07-16T12:46:03;8.88;;;2.45;;
30472;SDS011;17263;48.160;11.452;2023-07-16T12:48:30;2.30;;;2.10;;
30472;SDS011;17263;48.160;11.452;2023-07-16T12:50:56;3.20;;;2.10;;
30472;SDS011;17263;48.160;11.452;2023-07-16T12:53:22;2.22;;;2.03;;
30472;SDS011;17263;48.160;11.452;2023-07-16T12:55:49;5.53;;;2.03;;
30472;SDS011;17263;48.160;11.452;2023-07-16T12:58:15;2.67;;;2.20;;
30472;SDS011;17263;48.160;11.452;2023-07-16T13:00:41;2.63;;;2.42;;
30472;SDS011;17263;48.160;11.452;2023-07-16T13:03:07;3.05;;;2.45;;
30472;SDS011;17263;48.160;11.452;2023-07-16T13:05:39;5.78;;;2.20;;
30472;SDS011;17263;48.160;11.452;2023-07-16T13:08:06;2.28;;;2.05;;
30472;SDS011;17263;48.160;11.452;2023-07-16T13:10:32;2.63;;;2.20;;
30472;SDS011;17263;48.160;11.452;2023-07-16T13:12:58;2.58;;;2.38;;
30472;SDS011;17263;48.160;11.452;2023-07-16T13:15:24;2.60;;;2.10;;
30472;SDS011;17263;48.160;11.452;2023-07-16T13:17:50;2.63;;;2.10;;
30472;SDS011;17263;48.160;11.452;2023-07-16T13:20:17;2.92;;;2.17;;
30472;SDS011;17263;48.160;11.452;2023-07-16T13:22:44;2.45;;;2.25;;
30472;SDS011;17263;48.160;11.452;2023-07-16T13:25:10;4.35;;;2.60;;
30472;SDS011;17263;48.160;11.452;2023-07-16T13:27:36;3.15;;;2.35;;
30472;SDS011;17263;48.160;11.452;2023-07-16T13:30:02;3.05;;;2.30;;
30472;SDS011;17263;48.160;11.452;2023-07-16T13:32:29;3.97;;;2.80;;
30472;SDS011;17263;48.160;11.452;2023-07-16T13:34:55;3.45;;;2.60;;
30472;SDS011;17263;48.160;11.452;2023-07-16T13:37:21;2.40;;;2.20;;
30472;SDS011;17263;48.160;11.452;2023-07-16T13:39:47;2.75;;;2.30;;
30472;SDS011;17263;48.160;11.452;2023-07-16T13:42:13;3.45;;;2.53;;
30472;SDS011;17263;48.160;11.452;2023-07-16T13:44:39;5.75;;;2.25;;
30472;SDS011;17263;48.160;11.452;2023-07-16T13:47:05;2.15;;;2.05;;
30472;SDS011;17263;48.160;11.452;2023-07-16T13:49:31;2.55;;;2.10;;
30472;SDS011;17263;48.160;11.452;2023-07-16T13:51:57;3.58;;;2.28;;
30472;SDS011;17263;48.160;11.452;2023-07-16T13:54:23;2.38;;;2.13;;
30472;SDS011;17263;48.160;11.452;2023-07-16T13:56:50;2.50;;;2.30;;
30472;SDS011;17263;48.160;11.452;2023-07-16T13:59:16;2.47;;;2.28;;
30472;SDS011;17263;48.160;11.452;2023-07-16T14:01:42;2.67;;;2.13;;
30472;SDS011;17263;48.160;11.452;2023-07-16T14:04:08;2.95;;;2.35;;
30472;SDS011;17263;48.160;11.452;2023-07-16T14:06:34;2.78;;;2.58;;
30472;SDS011;17263;48.160;11.452;2023-07-16T14:09:00;3.03;;;2.25;;
30472;SDS011;17263;48.160;11.452;2023-07-16T14:11:26;2.47;;;2.13;;
30472;SDS011;17263;48.160;11.452;2023-07-16T14:13:52;2.40;;;2.20;;
30472;SDS011;17263;48.160;11.452;2023-07-16T14:16:19;3.58;;;2.40;;
30472;SDS011;17263;48.160;11.452;2023-07-16T14:18:50;2.42;;;2.22;;
30472;SDS011;17263;48.160;11.452;2023-07-16T14:21:18;2.78;;;2.47;;
30472;SDS011;17263;48.160;11.452;2023-07-16T14:23:44;2.28;;;2.08;;
30472;SDS011;17263;48.160;11.452;2023-07-16T14:26:10;3.72;;;2.17;;
30472;SDS011;17263;48.160;11.452;2023-07-16T14:28:36;2.75;;;2.30;;
30472;SDS011;17263;48.160;11.452;2023-07-16T14:31:02;3.28;;;2.33;;
30472;SDS011;17263;48.160;11.452;2023-07-16T14:33:28;10.73;;;2.47;;
30472;SDS011;17263;48.160;11.452;2023-07-16T14:35:54;2.65;;;2.45;;
30472;SDS011;17263;48.160;11.452;2023-07-16T14:38:20;5.18;;;2.58;;
30472;SDS011;17263;48.160;11.452;2023-07-16T14:40:46;2.58;;;2.30;;
30472;SDS011;17263;48.160;11.452;2023-07-16T14:43:13;2.65;;;2.13;;
30472;SDS011;17263;48.160;11.452;2023-07-16T14:45:39;2.72;;;2.25;;